Time;durP1;ratioP1;P1;durP2;ratioP2;P2;SDS_P1;SDS_P2;PMS_P1;PMS_P2;Temp;Humidity;BMP_temperature;BMP_pressure;BME280_temperature;BME280_humidity;BME280_pressure;Samples;Min_cycle;Max_cycle;Signal;HPM_P1;HPM_P2
2022/06/14 00:00:55;;;;;;;;;;;21.70;47.50;;;;;;5032325;28;19905;-80
2022/06/14 00:03:28;;;;;;;;;;;21.50;47.40;;;;;;5032162;28;20379;-80
2022/06/14 00:05:54;;;;;;;;;;;21.50;47.30;;;;;;5031549;28;19948;-81
2022/06/14 00:08:20;;;;;;;;;;;21.50;47.30;;;;;;5030770;28;19913;-80
2022/06/14 00:10:47;;;;;;;;;;;21.50;47.40;;;;;;5032058;28;20039;-81
2022/06/14 00:13:13;;;;;;;;;;;21.40;47.40;;;;;;5031446;28;19916;-81
2022/06/14 00:15:38;;;;;;;;;;;21.40;47.60;;;;;;5031128;28;19917;-81
2022/06/14 00:18:04;;;;;;;;;;;21.40;47.50;;;;;;5032470;28;19984;-81
2022/06/14 00:20:30;;;;;;;;;;;21.30;47.60;;;;;;5031554;28;19932;-81
2022/06/14 00:22:55;;;;;;;;;;;21.30;47.60;;;;;;5030911;28;19967;-81
2022/06/14 00:25:30;;;;;;;;;;;21.30;47.70;;;;;;5031452;28;19909;-80
2022/06/14 00:27:55;;;;;;;;;;;21.30;47.70;;;;;;5032015;28;19948;-80
2022/06/14 00:30:21;;;;;;;;;;;21.20;47.50;;;;;;5030460;28;19921;-79
2022/06/14 00:32:47;;;;;;;;;;;21.20;47.50;;;;;;5032118;28;19963;-79
2022/06/14 00:35:13;;;;;;;;;;;21.20;47.70;;;;;;5036049;28;19917;-79
2022/06/14 00:37:38;;;;;;;;;;;21.10;48.00;;;;;;5036120;28;19931;-79
2022/06/14 00:40:04;;;;;;;;;;;21.10;47.90;;;;;;5034134;28;19936;-79
2022/06/14 00:42:30;;;;;;;;;;;21.10;47.80;;;;;;5034009;28;19917;-80
2022/06/14 00:45:14;;;;;;;;;;;21.10;48.00;;;;;;5034367;28;19996;-80
2022/06/14 00:47:42;;;;;;;;;;;21.00;47.90;;;;;;5035262;28;20019;-80
2022/06/14 00:50:19;;;;;;;;;;;21.00;48.10;;;;;;5034272;28;19909;-80
2022/06/14 00:52:46;;;;;;;;;;;21.00;48.20;;;;;;5035164;28;19913;-80
2022/06/14 00:55:13;;;;;;;;;;;21.00;48.00;;;;;;5033363;28;20349;-80
2022/06/14 00:57:44;;;;;;;;;;;20.80;48.10;;;;;;5033948;28;19917;-80
2022/06/14 01:00:12;;;;;;;;;;;20.90;48.20;;;;;;5032787;28;19952;-80
2022/06/14 01:02:40;;;;;;;;;;;20.90;48.10;;;;;;5034652;28;20262;-80
2022/06/14 01:05:09;;;;;;;;;;;20.90;48.20;;;;;;5034619;28;19913;-80
2022/06/14 01:07:40;;;;;;;;;;;20.90;48.30;;;;;;5035268;28;20452;-80
2022/06/14 01:10:06;;;;;;;;;;;20.80;48.40;;;;;;5034678;28;19909;-80
2022/06/14 01:12:33;;;;;;;;;;;20.80;48.40;;;;;;5034640;28;19978;-80
2022/06/14 01:14:59;;;;;;;;;;;20.80;48.50;;;;;;5037704;28;19913;-80
2022/06/14 01:17:25;;;;;;;;;;;20.90;48.70;;;;;;5036175;28;19909;-80
2022/06/14 01:19:50;;;;;;;;;;;20.80;48.60;;;;;;5035553;28;19964;-80
2022/06/14 01:22:18;;;;;;;;;;;20.70;48.50;;;;;;5037758;28;19909;-80
2022/06/14 01:24:44;;;;;;;;;;;20.70;48.50;;;;;;5037209;28;20361;-80
2022/06/14 01:27:11;;;;;;;;;;;20.70;48.50;;;;;;5037730;28;19909;-80
2022/06/14 01:29:39;;;;;;;;;;;20.60;48.40;;;;;;5036374;28;19929;-80
2022/06/14 01:32:06;;;;;;;;;;;20.60;48.30;;;;;;5037423;28;19986;-80
2022/06/14 01:34:33;;;;;;;;;;;20.60;48.30;;;;;;5037900;28;19913;-80
2022/06/14 01:36:59;;;;;;;;;;;20.60;48.40;;;;;;5036968;28;19913;-80
2022/06/14 01:39:25;;;;;;;;;;;20.60;48.40;;;;;;5036569;28;20265;-80
2022/06/14 01:42:11;;;;;;;;;;;20.60;48.50;;;;;;5037218;28;19913;-80
2022/06/14 01:44:55;;;;;;;;;;;20.60;48.60;;;;;;5035980;28;19913;-80
2022/06/14 01:47:23;;;;;;;;;;;20.50;48.40;;;;;;5034987;28;19971;-80
2022/06/14 01:52:45;;;;;;;;;;;20.50;48.60;;;;;;5040170;28;19996;-80
2022/06/14 01:55:20;;;;;;;;;;;20.50;48.70;;;;;;5038453;28;19921;-80
2022/06/14 01:57:55;;;;;;;;;;;20.50;48.70;;;;;;5038370;28;19913;-79
2022/06/14 02:00:24;;;;;;;;;;;20.40;48.70;;;;;;5036052;28;19913;-79
2022/06/14 02:04:36;;;;;;;;;;;20.40;48.60;;;;;;5041270;28;19920;-79
2022/06/14 02:05:42;;;;;;;;;;;20.40;48.70;;;;;;5037139;28;19928;-79
2022/06/14 02:08:14;;;;;;;;;;;20.40;48.80;;;;;;5036430;28;19909;-78
2022/06/14 02:10:47;;;;;;;;;;;20.30;48.70;;;;;;5036881;28;19994;-79
2022/06/14 02:13:15;;;;;;;;;;;20.30;48.70;;;;;;5036694;28;19916;-80
2022/06/14 02:15:49;;;;;;;;;;;20.30;48.80;;;;;;5037463;28;19917;-79
2022/06/14 02:18:22;;;;;;;;;;;20.30;48.90;;;;;;5035882;28;19963;-79
2022/06/14 02:20:47;;;;;;;;;;;20.30;48.80;;;;;;5035685;28;19961;-80
2022/06/14 02:23:13;;;;;;;;;;;20.30;48.80;;;;;;5036055;28;19932;-80
2022/06/14 02:25:54;;;;;;;;;;;20.20;48.70;;;;;;5036947;28;19909;-80
2022/06/14 02:28:26;;;;;;;;;;;20.20;48.70;;;;;;5036052;28;19909;-79
2022/06/14 02:30:58;;;;;;;;;;;20.20;48.80;;;;;;5036780;28;20437;-80
2022/06/14 02:33:26;;;;;;;;;;;20.20;48.80;;;;;;5035131;28;19909;-80
2022/06/14 02:35:51;;;;;;;;;;;20.20;49.20;;;;;;5035306;28;19920;-80
2022/06/14 02:38:27;;;;;;;;;;;20.20;50.00;;;;;;5033560;28;19913;-80
2022/06/14 02:41:07;;;;;;;;;;;20.20;50.10;;;;;;5036503;28;19917;-79
2022/06/14 02:43:36;;;;;;;;;;;20.20;50.10;;;;;;5032230;28;19920;-80
2022/06/14 02:46:06;;;;;;;;;;;20.20;49.40;;;;;;5032468;28;19909;-80
2022/06/14 02:48:38;;;;;;;;;;;20.20;49.50;;;;;;5031774;28;20008;-79
2022/06/14 02:51:11;;;;;;;;;;;20.20;49.40;;;;;;5032311;28;20451;-79
2022/06/14 02:53:39;;;;;;;;;;;20.10;49.10;;;;;;5030840;28;19995;-79
2022/06/14 02:56:10;;;;;;;;;;;20.00;48.90;;;;;;5031424;28;20103;-79
2022/06/14 02:58:36;;;;;;;;;;;20.10;49.20;;;;;;5031313;28;20277;-79
2022/06/14 03:01:04;;;;;;;;;;;20.10;49.20;;;;;;5031824;28;19939;-79
2022/06/14 03:03:33;;;;;;;;;;;20.10;49.10;;;;;;5031856;28;19913;-79
2022/06/14 03:06:08;;;;;;;;;;;20.10;49.00;;;;;;5030338;28;19916;-79
2022/06/14 03:08:46;;;;;;;;;;;20.00;49.10;;;;;;5031106;28;20272;-79
2022/06/14 03:11:20;;;;;;;;;;;20.00;49.10;;;;;;5031614;28;19913;-79
2022/06/14 03:14:06;;;;;;;;;;;20.00;49.10;;;;;;5031400;28;19984;-79
2022/06/14 03:16:47;;;;;;;;;;;20.00;49.20;;;;;;5031314;28;19963;-79
2022/06/14 03:19:18;;;;;;;;;;;20.00;49.10;;;;;;5029498;28;19909;-79
2022/06/14 03:21:53;;;;;;;;;;;19.80;48.90;;;;;;5030082;28;19909;-78
2022/06/14 03:24:32;;;;;;;;;;;19.90;49.10;;;;;;5031251;28;19916;-78
2022/06/14 03:27:05;;;;;;;;;;;19.90;49.00;;;;;;5033183;28;19909;-78
2022/06/14 03:29:42;;;;;;;;;;;19.90;49.10;;;;;;5031959;28;19917;-79
2022/06/14 03:32:20;;;;;;;;;;;19.90;49.00;;;;;;5032259;28;20343;-79
2022/06/14 03:34:51;;;;;;;;;;;19.80;48.90;;;;;;5031941;28;19964;-79
2022/06/14 03:37:16;;;;;;;;;;;19.80;48.80;;;;;;5032084;28;19913;-79
2022/06/14 03:39:49;;;;;;;;;;;19.80;49.00;;;;;;5029782;28;20084;-79
2022/06/14 03:42:14;;;;;;;;;;;19.80;49.00;;;;;;5032433;28;20007;-79
2022/06/14 03:44:40;;;;;;;;;;;19.70;48.90;;;;;;5030818;28;19956;-79
2022/06/14 03:47:09;;;;;;;;;;;19.80;49.00;;;;;;5032010;28;20000;-79
2022/06/14 03:49:35;;;;;;;;;;;19.70;48.80;;;;;;5031311;28;20311;-79
2022/06/14 03:52:10;;;;;;;;;;;19.80;48.90;;;;;;5032691;28;19983;-79
2022/06/14 03:54:38;;;;;;;;;;;19.70;48.80;;;;;;5031131;28;19913;-78
2022/06/14 03:57:24;;;;;;;;;;;19.80;49.00;;;;;;5032643;28;19924;-78
2022/06/14 03:59:56;;;;;;;;;;;19.80;48.90;;;;;;5031777;28;19983;-79
2022/06/14 04:05:21;;;;;;;;;;;19.70;49.00;;;;;;5032649;28;19916;-79
2022/06/14 04:07:50;;;;;;;;;;;19.70;49.00;;;;;;5033202;28;19909;-79
2022/06/14 04:10:16;;;;;;;;;;;19.70;49.00;;;;;;5035845;28;19909;-79
2022/06/14 04:12:41;;;;;;;;;;;19.70;49.10;;;;;;5036835;28;20292;-79
2022/06/14 04:15:19;;;;;;;;;;;19.70;49.10;;;;;;5036652;28;19913;-79
2022/06/14 04:17:48;;;;;;;;;;;19.70;49.10;;;;;;5036667;28;20434;-79
2022/06/14 04:20:24;;;;;;;;;;;19.70;49.00;;;;;;5035251;28;19967;-79
2022/06/14 04:22:53;;;;;;;;;;;19.70;49.10;;;;;;5035675;28;19920;-79
2022/06/14 04:25:18;;;;;;;;;;;19.70;49.10;;;;;;5036544;28;19909;-78
2022/06/14 04:28:06;;;;;;;;;;;19.60;49.30;;;;;;5036674;28;19967;-78
2022/06/14 04:30:38;;;;;;;;;;;19.70;49.60;;;;;;5035390;28;19924;-79
2022/06/14 04:33:15;;;;;;;;;;;19.70;49.50;;;;;;5036205;28;19948;-79
2022/06/14 04:35:41;;;;;;;;;;;19.70;49.50;;;;;;5034435;28;19917;-79
2022/06/14 04:38:09;;;;;;;;;;;19.80;49.50;;;;;;5034688;28;19967;-79
2022/06/14 04:40:43;;;;;;;;;;;19.70;49.70;;;;;;5035396;28;19909;-79
2022/06/14 04:43:21;;;;;;;;;;;19.70;49.70;;;;;;5036435;28;19920;-79
2022/06/14 04:45:59;;;;;;;;;;;19.80;49.80;;;;;;5034664;28;19912;-79
2022/06/14 04:48:38;;;;;;;;;;;19.90;49.90;;;;;;5035255;28;19991;-80
2022/06/14 04:51:06;;;;;;;;;;;19.90;49.50;;;;;;5034373;28;19916;-79
2022/06/14 04:53:43;;;;;;;;;;;20.00;49.50;;;;;;5034950;28;19936;-79
2022/06/14 04:56:15;;;;;;;;;;;20.00;49.40;;;;;;5035192;28;19936;-80
2022/06/14 04:58:51;;;;;;;;;;;20.10;49.40;;;;;;5034151;28;19959;-80
2022/06/14 05:01:19;;;;;;;;;;;20.20;49.40;;;;;;5035315;28;19959;-79
2022/06/14 05:04:08;;;;;;;;;;;20.40;49.60;;;;;;5035216;28;19991;-79
2022/06/14 05:06:47;;;;;;;;;;;20.30;49.50;;;;;;5032163;28;19964;-79
2022/06/14 05:09:15;;;;;;;;;;;20.40;49.40;;;;;;5034516;28;19963;-79
2022/06/14 05:12:02;;;;;;;;;;;20.50;49.60;;;;;;5034319;28;19919;-80
2022/06/14 05:14:31;;;;;;;;;;;20.50;49.80;;;;;;5035602;28;20325;-80
2022/06/14 05:17:02;;;;;;;;;;;20.60;49.80;;;;;;5034675;28;19974;-80
2022/06/14 05:19:37;;;;;;;;;;;20.80;50.40;;;;;;5035429;28;19909;-80
2022/06/14 05:22:03;;;;;;;;;;;20.90;49.50;;;;;;5034822;28;19916;-79
2022/06/14 05:24:29;;;;;;;;;;;21.00;49.40;;;;;;5034812;28;19962;-79
2022/06/14 05:27:01;;;;;;;;;;;21.10;49.10;;;;;;5036448;28;19909;-79
2022/06/14 05:29:38;;;;;;;;;;;21.20;49.10;;;;;;5034483;28;19921;-80
2022/06/14 05:32:23;;;;;;;;;;;21.30;48.70;;;;;;5034690;28;19978;-80
2022/06/14 05:34:49;;;;;;;;;;;21.40;48.60;;;;;;5034574;28;20289;-79
2022/06/14 05:37:20;;;;;;;;;;;21.60;48.30;;;;;;5034285;28;19913;-79
2022/06/14 05:39:49;;;;;;;;;;;21.70;48.30;;;;;;5033932;28;19917;-80
2022/06/14 05:42:14;;;;;;;;;;;21.80;48.30;;;;;;5034658;28;19916;-79
2022/06/14 05:44:41;;;;;;;;;;;21.90;48.10;;;;;;5033029;28;19909;-81
2022/06/14 05:47:10;;;;;;;;;;;22.00;47.80;;;;;;5034420;28;19956;-79
2022/06/14 05:49:38;;;;;;;;;;;22.10;47.80;;;;;;5033673;28;19945;-80
2022/06/14 05:52:12;;;;;;;;;;;22.20;47.50;;;;;;5034687;28;19920;-79
2022/06/14 05:54:40;;;;;;;;;;;22.40;47.20;;;;;;5034542;28;19909;-80
2022/06/14 05:57:06;;;;;;;;;;;22.50;46.90;;;;;;5035068;28;19913;-80
2022/06/14 05:59:45;;;;;;;;;;;22.60;46.90;;;;;;5034855;28;19913;-82
2022/06/14 06:02:20;;;;;;;;;;;22.70;46.70;;;;;;5028345;28;19924;-81
2022/06/14 06:04:52;;;;;;;;;;;22.90;46.70;;;;;;5032258;28;20411;-83
2022/06/14 06:07:22;;;;;;;;;;;23.20;46.40;;;;;;5033397;28;19913;-83
2022/06/14 06:09:50;;;;;;;;;;;23.70;45.70;;;;;;5029840;28;19921;-81
2022/06/14 06:12:28;;;;;;;;;;;24.50;44.80;;;;;;5025232;28;19921;-81
2022/06/14 06:14:56;;;;;;;;;;;25.10;43.80;;;;;;5031343;28;19917;-82
2022/06/14 06:17:24;;;;;;;;;;;25.70;42.90;;;;;;5031156;28;19917;-81
2022/06/14 06:20:01;;;;;;;;;;;25.90;42.10;;;;;;5034299;28;19924;-82
2022/06/14 06:22:41;;;;;;;;;;;26.20;41.80;;;;;;5036280;28;19913;-79
2022/06/14 06:25:07;;;;;;;;;;;26.50;41.40;;;;;;5031445;28;19914;-81
2022/06/14 06:27:59;;;;;;;;;;;26.80;41.30;;;;;;5028707;28;20404;-81
2022/06/14 06:30:31;;;;;;;;;;;27.00;40.70;;;;;;5035639;28;19921;-80
2022/06/14 06:32:56;;;;;;;;;;;27.10;40.40;;;;;;5029138;28;19920;-81
2022/06/14 06:35:38;;;;;;;;;;;27.30;40.20;;;;;;5032058;28;19980;-80
2022/06/14 06:38:24;;;;;;;;;;;27.60;40.00;;;;;;5036730;28;20084;-80
2022/06/14 06:41:49;;;;;;;;;;;27.60;39.30;;;;;;5039154;28;19949;-80
2022/06/14 06:43:40;;;;;;;;;;;27.60;39.10;;;;;;5051456;28;20286;-81
2022/06/14 06:46:08;;;;;;;;;;;27.60;39.00;;;;;;5035605;28;19917;-82
2022/06/14 06:48:39;;;;;;;;;;;27.60;38.80;;;;;;5034089;28;19992;-82
2022/06/14 06:51:07;;;;;;;;;;;27.60;38.60;;;;;;5040151;28;20353;-83
2022/06/14 06:53:36;;;;;;;;;;;27.50;38.60;;;;;;5038302;28;19979;-83
2022/06/14 06:56:14;;;;;;;;;;;27.30;38.80;;;;;;5026767;28;19968;-82
2022/06/14 06:58:52;;;;;;;;;;;27.30;38.70;;;;;;5028421;28;19971;-82
2022/06/14 07:01:24;;;;;;;;;;;27.00;38.40;;;;;;5034163;28;20008;-82
2022/06/14 07:04:01;;;;;;;;;;;26.80;39.10;;;;;;5028986;28;20008;-82
2022/06/14 07:06:39;;;;;;;;;;;26.80;38.70;;;;;;5035453;28;19913;-82
2022/06/14 07:09:17;;;;;;;;;;;27.10;38.70;;;;;;5022411;28;20292;-82
2022/06/14 07:11:50;;;;;;;;;;;27.20;38.60;;;;;;5033648;28;20312;-83
2022/06/14 07:14:22;;;;;;;;;;;27.30;38.20;;;;;;5033511;28;19913;-84
2022/06/14 07:16:51;;;;;;;;;;;27.30;38.20;;;;;;5047013;28;20338;-81
2022/06/14 07:19:24;;;;;;;;;;;27.60;38.00;;;;;;5016325;28;19917;-84
2022/06/14 07:21:54;;;;;;;;;;;27.90;37.20;;;;;;5018193;28;19972;-83
2022/06/14 07:24:19;;;;;;;;;;;28.10;37.70;;;;;;5032931;28;19909;-83
2022/06/14 07:26:50;;;;;;;;;;;28.50;37.50;;;;;;5032174;28;20047;-83
2022/06/14 07:29:16;;;;;;;;;;;28.60;36.50;;;;;;5033134;28;19963;-81
2022/06/14 07:31:48;;;;;;;;;;;28.70;35.80;;;;;;5031058;28;19967;-81
2022/06/14 07:34:15;;;;;;;;;;;29.00;35.60;;;;;;5026749;28;19991;-81
2022/06/14 07:36:41;;;;;;;;;;;29.10;35.70;;;;;;5027996;28;19914;-81
2022/06/14 07:39:10;;;;;;;;;;;29.20;35.50;;;;;;5025226;28;20388;-81
2022/06/14 07:41:54;;;;;;;;;;;29.40;35.30;;;;;;5028643;28;19909;-79
2022/06/14 07:44:42;;;;;;;;;;;29.50;35.30;;;;;;5030271;28;19913;-78
2022/06/14 07:47:33;;;;;;;;;;;29.60;35.50;;;;;;5033339;28;20010;-78
2022/06/14 07:50:09;;;;;;;;;;;29.50;35.40;;;;;;5015995;28;19936;-79
2022/06/14 07:52:42;;;;;;;;;;;29.50;35.50;;;;;;5037067;28;19982;-79
2022/06/14 07:55:37;;;;;;;;;;;29.30;35.30;;;;;;5038266;28;20542;-79
2022/06/14 07:58:06;;;;;;;;;;;29.00;35.60;;;;;;5028539;28;19913;-78
2022/06/14 08:03:22;;;;;;;;;;;28.90;37.30;;;;;;5035403;28;19916;-78
2022/06/14 08:05:50;;;;;;;;;;;28.70;36.30;;;;;;5034469;28;19971;-79
2022/06/14 08:08:18;;;;;;;;;;;28.60;36.70;;;;;;5036641;28;19920;-81
2022/06/14 08:10:47;;;;;;;;;;;28.30;36.00;;;;;;5036579;28;20391;-81
2022/06/14 08:13:16;;;;;;;;;;;28.30;37.00;;;;;;5037387;28;20365;-82
2022/06/14 08:15:44;;;;;;;;;;;28.30;37.20;;;;;;5035727;28;20324;-83
2022/06/14 08:18:13;;;;;;;;;;;28.20;37.00;;;;;;5037417;28;20004;-83
2022/06/14 08:21:05;;;;;;;;;;;28.30;36.90;;;;;;5035851;28;19959;-84
2022/06/14 08:23:43;;;;;;;;;;;28.50;37.00;;;;;;5034816;28;19915;-82
2022/06/14 08:26:13;;;;;;;;;;;28.80;36.50;;;;;;5035473;28;20003;-82
2022/06/14 08:28:39;;;;;;;;;;;29.00;36.20;;;;;;5034374;28;19967;-82
2022/06/14 08:31:07;;;;;;;;;;;29.00;36.00;;;;;;5035483;28;19913;-82
2022/06/14 08:33:52;;;;;;;;;;;29.00;35.80;;;;;;5035020;28;19949;-82
2022/06/14 08:36:23;;;;;;;;;;;29.10;35.60;;;;;;5033809;28;19913;-82
2022/06/14 08:38:58;;;;;;;;;;;29.20;35.50;;;;;;5033230;28;19955;-82
2022/06/14 08:41:27;;;;;;;;;;;29.20;35.30;;;;;;5035334;28;19963;-82
2022/06/14 08:43:55;;;;;;;;;;;29.20;35.30;;;;;;5034883;28;19913;-82
2022/06/14 08:46:20;;;;;;;;;;;29.30;35.50;;;;;;5034046;28;19909;-82
2022/06/14 08:48:46;;;;;;;;;;;29.10;35.40;;;;;;5035084;28;19931;-82
2022/06/14 08:51:20;;;;;;;;;;;29.00;35.80;;;;;;5036249;28;19948;-82
2022/06/14 08:54:04;;;;;;;;;;;29.00;35.70;;;;;;5035207;28;19922;-82
2022/06/14 08:56:49;;;;;;;;;;;28.90;36.10;;;;;;5035158;28;19923;-82
2022/06/14 08:59:23;;;;;;;;;;;28.80;36.00;;;;;;5035620;28;19913;-82
2022/06/14 09:01:48;;;;;;;;;;;28.80;36.20;;;;;;5034771;28;19937;-82
2022/06/14 09:04:27;;;;;;;;;;;28.70;36.40;;;;;;5035281;28;19931;-82
2022/06/14 09:07:11;;;;;;;;;;;28.60;36.50;;;;;;5035582;28;19909;-82
2022/06/14 09:09:43;;;;;;;;;;;28.50;36.70;;;;;;5033036;28;19917;-82
2022/06/14 09:12:09;;;;;;;;;;;28.40;36.80;;;;;;5035562;28;19932;-82
2022/06/14 09:14:54;;;;;;;;;;;28.40;36.90;;;;;;5035053;28;19960;-82
2022/06/14 09:17:19;;;;;;;;;;;28.30;37.00;;;;;;5033206;28;20000;-82
2022/06/14 09:20:02;;;;;;;;;;;28.20;37.10;;;;;;5021403;28;20368;-82
2022/06/14 09:22:33;;;;;;;;;;;28.20;37.10;;;;;;5014497;28;20373;-82
2022/06/14 09:25:08;;;;;;;;;;;28.20;37.20;;;;;;5013797;28;19992;-82
2022/06/14 09:27:50;;;;;;;;;;;28.20;37.10;;;;;;5013932;28;20381;-82
2022/06/14 09:30:31;;;;;;;;;;;28.20;37.10;;;;;;5011206;28;19921;-82
2022/06/14 09:33:13;;;;;;;;;;;28.10;37.80;;;;;;5013453;28;19918;-82
2022/06/14 09:35:44;;;;;;;;;;;28.10;37.20;;;;;;5015481;28;19921;-83
2022/06/14 09:38:28;;;;;;;;;;;28.10;37.30;;;;;;5015407;28;19944;-81
2022/06/14 09:41:26;;;;;;;;;;;27.90;37.10;;;;;;5013838;28;19905;-81
2022/06/14 09:44:00;;;;;;;;;;;27.80;37.40;;;;;;5002934;28;20408;-81
2022/06/14 09:46:41;;;;;;;;;;;27.70;37.70;;;;;;5014935;28;19913;-81
2022/06/14 09:49:16;;;;;;;;;;;27.40;38.10;;;;;;5014397;28;19979;-81
2022/06/14 09:51:50;;;;;;;;;;;27.20;38.60;;;;;;5014663;28;20433;-82
2022/06/14 09:54:34;;;;;;;;;;;27.00;38.90;;;;;;5018792;28;19963;-80
2022/06/14 09:57:06;;;;;;;;;;;27.00;39.20;;;;;;5031045;28;19913;-81
2022/06/14 09:59:35;;;;;;;;;;;26.90;39.40;;;;;;5030811;28;19948;-83
2022/06/14 10:02:01;;;;;;;;;;;26.90;39.60;;;;;;5028923;28;19916;-81
2022/06/14 10:04:46;;;;;;;;;;;26.70;39.60;;;;;;5030738;28;19909;-81
2022/06/14 10:07:24;;;;;;;;;;;26.60;39.70;;;;;;5020844;28;19917;-82
2022/06/14 10:10:08;;;;;;;;;;;26.50;39.80;;;;;;5027810;28;20003;-81
2022/06/14 10:12:53;;;;;;;;;;;26.50;39.90;;;;;;5030335;28;19909;-81
2022/06/14 10:15:37;;;;;;;;;;;26.30;40.10;;;;;;5028129;28;19924;-81
2022/06/14 10:18:22;;;;;;;;;;;26.30;40.30;;;;;;5028865;28;19909;-81
2022/06/14 10:20:54;;;;;;;;;;;26.10;40.50;;;;;;5032967;28;19916;-81
2022/06/14 10:23:38;;;;;;;;;;;26.10;40.70;;;;;;5038496;28;20345;-81
2022/06/14 10:29:00;;;;;;;;;;;25.90;41.00;;;;;;5034767;28;19924;-80
2022/06/14 10:31:25;;;;;;;;;;;25.80;41.20;;;;;;5035410;28;20284;-82
2022/06/14 10:34:09;;;;;;;;;;;25.70;41.30;;;;;;5031740;28;19967;-82
2022/06/14 10:36:40;;;;;;;;;;;25.70;41.50;;;;;;5033786;28;19920;-81
2022/06/14 10:39:23;;;;;;;;;;;25.60;41.50;;;;;;5032360;28;19916;-79
2022/06/14 10:42:00;;;;;;;;;;;25.60;41.70;;;;;;5035990;28;19936;-82
2022/06/14 10:44:42;;;;;;;;;;;25.50;41.60;;;;;;5035588;28;19932;-81
2022/06/14 10:47:38;;;;;;;;;;;25.50;41.50;;;;;;5037938;28;19913;-80
2022/06/14 10:50:15;;;;;;;;;;;25.40;41.50;;;;;;5017085;28;19918;-80
2022/06/14 10:52:54;;;;;;;;;;;25.40;41.80;;;;;;5034009;28;20339;-80
2022/06/14 10:55:20;;;;;;;;;;;25.30;41.80;;;;;;5036224;28;19992;-80
2022/06/14 10:57:45;;;;;;;;;;;25.30;41.80;;;;;;5036910;28;19949;-80
2022/06/14 11:00:15;;;;;;;;;;;25.20;41.70;;;;;;5037321;28;19962;-80
2022/06/14 11:02:50;;;;;;;;;;;25.20;41.90;;;;;;5030243;28;19916;-80
2022/06/14 11:05:22;;;;;;;;;;;25.10;42.00;;;;;;5033326;28;20265;-80
2022/06/14 11:07:50;;;;;;;;;;;25.10;42.20;;;;;;5034226;28;19996;-80
2022/06/14 11:10:15;;;;;;;;;;;25.10;42.30;;;;;;5031407;28;19959;-80
2022/06/14 11:12:47;;;;;;;;;;;25.10;42.30;;;;;;5030288;28;20373;-79
2022/06/14 11:15:32;;;;;;;;;;;25.00;42.40;;;;;;5031054;28;19920;-80
2022/06/14 11:18:16;;;;;;;;;;;25.00;42.40;;;;;;5029719;28;20003;-80
2022/06/14 11:20:48;;;;;;;;;;;25.00;42.60;;;;;;5030407;28;20336;-80
2022/06/14 11:23:14;;;;;;;;;;;25.00;42.60;;;;;;5028975;28;20284;-80
2022/06/14 11:25:44;;;;;;;;;;;24.90;42.50;;;;;;5028508;28;19913;-80
2022/06/14 11:28:22;;;;;;;;;;;24.90;42.70;;;;;;5030258;28;19909;-81
2022/06/14 11:30:52;;;;;;;;;;;24.90;42.80;;;;;;5026552;28;19990;-79
2022/06/14 11:33:24;;;;;;;;;;;24.90;42.60;;;;;;5028593;28;19910;-80
2022/06/14 11:36:08;;;;;;;;;;;24.90;43.00;;;;;;5026140;28;19917;-80
2022/06/14 11:38:45;;;;;;;;;;;24.90;43.00;;;;;;5028862;28;19916;-79
2022/06/14 11:41:12;;;;;;;;;;;24.80;43.10;;;;;;5029453;28;19913;-79
2022/06/14 11:43:37;;;;;;;;;;;24.70;43.10;;;;;;5031615;28;19914;-80
2022/06/14 11:46:06;;;;;;;;;;;24.80;43.10;;;;;;5031058;28;19919;-79
2022/06/14 11:48:52;;;;;;;;;;;24.70;43.10;;;;;;5030055;28;20435;-80
2022/06/14 11:51:37;;;;;;;;;;;24.70;43.20;;;;;;5026802;28;19917;-81
2022/06/14 11:54:05;;;;;;;;;;;24.70;43.30;;;;;;5030088;28;20262;-79
2022/06/14 11:56:38;;;;;;;;;;;24.70;43.20;;;;;;5029843;28;19936;-80
2022/06/14 11:59:03;;;;;;;;;;;24.70;43.20;;;;;;5028901;28;19913;-80
2022/06/14 12:01:44;;;;;;;;;;;24.70;43.30;;;;;;5029596;28;20272;-80
2022/06/14 12:04:28;;;;;;;;;;;24.70;43.30;;;;;;5029688;28;19909;-80
2022/06/14 12:07:08;;;;;;;;;;;24.70;43.30;;;;;;5031045;28;20430;-80
2022/06/14 12:09:55;;;;;;;;;;;24.70;43.30;;;;;;5030091;28;19962;-80
2022/06/14 12:12:29;;;;;;;;;;;24.60;43.30;;;;;;5029951;28;19909;-81
2022/06/14 12:14:58;;;;;;;;;;;24.60;43.20;;;;;;5029797;28;19913;-79
2022/06/14 12:17:28;;;;;;;;;;;24.60;43.20;;;;;;5029749;28;20008;-81
2022/06/14 12:20:01;;;;;;;;;;;24.60;43.20;;;;;;5029318;28;19909;-80
2022/06/14 12:22:31;;;;;;;;;;;24.60;43.40;;;;;;5028970;28;20501;-80
2022/06/14 12:27:43;;;;;;;;;;;24.60;43.40;;;;;;5029550;28;19916;-80
2022/06/14 12:30:10;;;;;;;;;;;24.60;43.50;;;;;;5029966;28;20074;-80
2022/06/14 12:32:40;;;;;;;;;;;24.60;43.50;;;;;;5032965;28;19972;-80
2022/06/14 12:35:09;;;;;;;;;;;24.50;43.40;;;;;;5032265;28;19918;-80
2022/06/14 12:37:45;;;;;;;;;;;24.50;43.50;;;;;;5033474;28;19937;-80
2022/06/14 12:40:24;;;;;;;;;;;24.50;43.50;;;;;;5032621;28;20001;-81
2022/06/14 12:43:08;;;;;;;;;;;24.50;43.50;;;;;;5034927;28;19910;-81
2022/06/14 12:45:33;;;;;;;;;;;24.50;43.50;;;;;;5033286;28;19909;-81
2022/06/14 12:48:01;;;;;;;;;;;24.50;43.40;;;;;;5034531;28;19979;-80
2022/06/14 12:50:30;;;;;;;;;;;24.50;43.50;;;;;;5033645;28;20403;-81
2022/06/14 12:52:58;;;;;;;;;;;24.50;43.50;;;;;;5033403;28;19941;-81
2022/06/14 12:55:31;;;;;;;;;;;24.50;43.50;;;;;;5033125;28;19968;-80
2022/06/14 12:57:59;;;;;;;;;;;24.50;43.50;;;;;;5034448;28;20265;-81
2022/06/14 13:00:43;;;;;;;;;;;24.50;43.50;;;;;;5032355;28;19916;-80
2022/06/14 13:03:16;;;;;;;;;;;24.50;43.60;;;;;;5034556;28;19956;-80
2022/06/14 13:05:45;;;;;;;;;;;24.50;43.50;;;;;;5034504;28;20304;-81
2022/06/14 13:08:31;;;;;;;;;;;24.50;43.40;;;;;;5034330;28;20380;-80
2022/06/14 13:11:04;;;;;;;;;;;24.50;43.50;;;;;;5032855;28;19905;-80
2022/06/14 13:13:39;;;;;;;;;;;24.50;43.60;;;;;;5032611;28;19919;-80
2022/06/14 13:16:23;;;;;;;;;;;24.50;43.60;;;;;;5034277;28;20678;-80
2022/06/14 13:18:57;;;;;;;;;;;24.50;43.60;;;;;;5033231;28;19944;-80
2022/06/14 13:21:32;;;;;;;;;;;24.50;43.70;;;;;;5034217;28;19913;-81
2022/06/14 13:23:57;;;;;;;;;;;24.50;43.70;;;;;;5034172;28;19916;-81
2022/06/14 13:26:40;;;;;;;;;;;24.50;43.70;;;;;;5032953;28;19913;-80
2022/06/14 13:29:15;;;;;;;;;;;24.50;43.70;;;;;;5027862;28;19917;-81
2022/06/14 13:31:40;;;;;;;;;;;24.40;43.70;;;;;;5030899;28;19909;-80
2022/06/14 13:34:19;;;;;;;;;;;24.50;43.80;;;;;;5033592;28;19919;-80
2022/06/14 13:36:54;;;;;;;;;;;24.50;43.70;;;;;;5033831;28;19913;-80
2022/06/14 13:39:38;;;;;;;;;;;24.40;43.70;;;;;;5034100;28;19913;-81
2022/06/14 13:42:16;;;;;;;;;;;24.40;43.80;;;;;;5032288;28;20000;-81
2022/06/14 13:44:48;;;;;;;;;;;24.40;43.80;;;;;;5032286;28;19909;-81
2022/06/14 13:47:23;;;;;;;;;;;24.40;43.80;;;;;;5032351;28;19956;-80
2022/06/14 13:49:58;;;;;;;;;;;24.40;43.80;;;;;;5034043;28;19916;-81
2022/06/14 13:52:43;;;;;;;;;;;24.50;43.80;;;;;;5033538;28;19913;-80
2022/06/14 13:55:20;;;;;;;;;;;24.50;44.00;;;;;;5027082;28;19919;-80
2022/06/14 13:57:58;;;;;;;;;;;24.50;43.90;;;;;;5022209;28;20385;-80
2022/06/14 14:00:24;;;;;;;;;;;24.40;43.90;;;;;;5031628;28;19913;-80
2022/06/14 14:02:57;;;;;;;;;;;24.40;43.90;;;;;;5033207;28;20332;-81
2022/06/14 14:05:29;;;;;;;;;;;24.40;43.90;;;;;;5033619;28;19916;-81
2022/06/14 14:07:58;;;;;;;;;;;24.40;43.90;;;;;;5034192;28;20015;-81
2022/06/14 14:10:32;;;;;;;;;;;24.40;44.00;;;;;;5032880;28;19917;-81
2022/06/14 14:13:04;;;;;;;;;;;24.40;44.00;;;;;;5033822;28;19909;-80
2022/06/14 14:15:46;;;;;;;;;;;24.40;44.00;;;;;;5033384;28;19917;-80
2022/06/14 14:18:30;;;;;;;;;;;24.40;44.00;;;;;;5031861;28;20007;-80
2022/06/14 14:20:59;;;;;;;;;;;24.40;44.10;;;;;;5032090;28;19913;-79
2022/06/14 14:23:24;;;;;;;;;;;24.40;44.00;;;;;;5032185;28;20400;-81
2022/06/14 14:26:04;;;;;;;;;;;24.40;44.10;;;;;;5032927;28;19917;-80
2022/06/14 14:28:48;;;;;;;;;;;24.40;44.10;;;;;;5033175;28;19925;-81
2022/06/14 14:31:20;;;;;;;;;;;24.40;44.10;;;;;;5033030;28;19912;-82
2022/06/14 14:33:46;;;;;;;;;;;24.50;44.40;;;;;;5033812;28;19923;-81
2022/06/14 14:36:30;;;;;;;;;;;24.40;44.40;;;;;;5024355;28;19918;-80
2022/06/14 14:39:18;;;;;;;;;;;24.50;44.50;;;;;;5032441;28;19917;-80
2022/06/14 14:41:50;;;;;;;;;;;24.50;44.50;;;;;;5032944;28;20379;-80
2022/06/14 14:44:22;;;;;;;;;;;24.50;44.50;;;;;;5023948;28;19996;-80
2022/06/14 14:46:53;;;;;;;;;;;24.50;44.50;;;;;;5021715;28;19920;-80
2022/06/14 14:49:25;;;;;;;;;;;24.50;44.50;;;;;;5031947;28;19910;-80
2022/06/14 14:52:12;;;;;;;;;;;24.50;44.50;;;;;;5033780;28;19917;-80
2022/06/14 14:54:42;;;;;;;;;;;24.50;44.50;;;;;;5022055;28;19913;-79
2022/06/14 14:57:29;;;;;;;;;;;24.50;44.50;;;;;;5033544;28;20292;-80
2022/06/14 15:00:00;;;;;;;;;;;24.40;44.40;;;;;;5032793;28;19978;-80
2022/06/14 15:05:44;;;;;;;;;;;24.40;44.40;;;;;;5024439;28;20044;-80
2022/06/14 15:08:26;;;;;;;;;;;24.40;44.40;;;;;;5023839;28;20369;-80